Hauptseite
METAR-TAF:

METAR-TAF

Flughäfen :

Flughafen Brüssel-Charleroi

Charleroi, Belgien

Breite: 50-28N, Länge: 004-27E, Höhe: 187 m

Beobachtung

Neuester Wetterbericht von vor 10 Minuten, um 11:20 UTC
Wind 17 kt aus Südwest, variierte zwischen Süd/Südwest und West
Temperatur 22°C
Luftfeuchtigkeit 53%
Luftdruck 1018 hPa
Sichtweite 10 km oder mehr
Leicht bewölkt in der Höhe von 3300 ft

METAR: EBCI 191120Z 23017KT 200V260 9999 FEW033 22/12 Q1018 NOSIG

Zeit: 13:30 (11:30 UTC)

Prognose

Neuester Wetterbericht von vor 6 Stunden und 20 Minuten, um 05:10 UTC
Gültige Prognose vom 19 um 06 UTC bis 20 um 12 UTC
Wind 6 kt aus Süd/Südwest
Sichtweite 10 km oder mehr
keine Wolken unter 1500 m und keine Kumulonimbus oder Gewitterwolken
Zeitweise
vom 19 um 11 UTC bis 19 um 16 UTC
Wind 15 kt aus Südwest, Böen bis zu 25 kt

TAF: EBCI 190510Z 1906/2012 21006KT CAVOK TEMPO 1911/1916 23015G25KT

Wetterbeobachtungen und Prognosen von mehr als 4000 Flughäfen (METAR und TAF Bericht).

Die verfügbaren Stationen werden durch gelbe und rote Markierungen auf der Karte dargestellt.

Führen Sie die Maus auf sie, um den Namen der Station zu sehen.

Darauf klicken, um die Beobachtung von Wetterbeobachtungen und Prognosen zu sehen.

Um die Karte zu ändern : klicken Sie auf den grünen Tasten mit einem schwarzen Kreuz Zum Vergrößern, auf den grünen Button mit einem Gedankenstrich zu verkleinern, oder auf die grünen Pfeile für benachbarte Karten.


METAR-TAF: